Time;durP1;ratioP1;P1;durP2;ratioP2;P2;SDS_P1;SDS_P2;PMS_P1;PMS_P2;Temp;Humidity;BMP_temperature;BMP_pressure;BME280_temperature;BME280_humidity;BME280_pressure;Samples;Min_cycle;Max_cycle;Signal;HPM_P1;HPM_P2
2023/09/25 00:15:02;;;;;;;9.07;6.00;;;20.20;99.90;;;;;;4567759;19;20021;-74
2023/09/25 00:16:38;;;;;;;8.73;6.38;;;20.20;99.90;;;;;;4592621;19;20027;-74
2023/09/25 00:18:13;;;;;;;8.52;6.07;;;20.20;99.90;;;;;;4594964;19;20294;-73
2023/09/25 00:19:48;;;;;;;10.70;6.47;;;20.20;99.90;;;;;;4594181;19;20030;-74
2023/09/25 00:21:23;;;;;;;12.38;7.40;;;20.20;99.90;;;;;;4594732;19;20003;-74
2023/09/25 00:22:56;;;;;;;11.15;6.93;;;20.20;99.90;;;;;;4594858;19;20006;-74
2023/09/25 00:24:30;;;;;;;12.45;7.00;;;20.20;99.90;;;;;;4593288;19;20006;-73
2023/09/25 00:26:08;;;;;;;9.85;6.63;;;20.20;99.90;;;;;;4594647;19;19999;-74
2023/09/25 00:27:43;;;;;;;11.45;6.82;;;20.20;99.90;;;;;;4595066;19;20013;-73
2023/09/25 00:29:17;;;;;;;10.10;6.45;;;20.20;99.90;;;;;;4594939;19;20452;-73
2023/09/25 00:30:52;;;;;;;12.82;7.32;;;20.20;99.90;;;;;;4595405;19;20029;-74
2023/09/25 00:32:26;;;;;;;9.05;6.93;;;20.20;99.90;;;;;;4595082;19;20022;-73
2023/09/25 00:34:03;;;;;;;10.27;6.30;;;20.20;99.90;;;;;;4593263;19;20006;-73
2023/09/25 00:35:40;;;;;;;9.00;6.05;;;20.20;99.90;;;;;;4592871;19;20025;-73
2023/09/25 00:37:14;;;;;;;8.93;6.32;;;20.20;99.90;;;;;;4593251;19;20429;-73
2023/09/25 00:38:51;;;;;;;7.95;5.63;;;20.20;99.90;;;;;;4594124;19;19999;-73
2023/09/25 00:40:27;;;;;;;8.13;5.13;;;20.20;99.90;;;;;;4594543;19;20014;-73
2023/09/25 00:42:01;;;;;;;8.65;6.18;;;20.20;99.90;;;;;;4592906;19;20128;-73
2023/09/25 00:43:35;;;;;;;10.18;6.65;;;20.20;99.90;;;;;;4594235;19;20003;-73
2023/09/25 00:45:11;;;;;;;11.90;6.53;;;20.20;99.90;;;;;;4593197;19;20003;-73
2023/09/25 00:46:45;;;;;;;11.20;6.93;;;20.20;99.90;;;;;;4593289;19;20332;-73
2023/09/25 00:48:28;;;;;;;8.65;6.25;;;20.20;99.90;;;;;;4594184;19;20029;-73
2023/09/25 00:50:04;;;;;;;9.82;6.30;;;20.20;99.90;;;;;;4592970;19;20439;-73
2023/09/25 00:51:37;;;;;;;10.00;6.63;;;20.20;99.90;;;;;;4593848;19;19999;-73
2023/09/25 00:53:11;;;;;;;8.10;5.82;;;20.20;99.90;;;;;;4593172;19;20074;-73
2023/09/25 00:54:46;;;;;;;9.77;6.78;;;20.20;99.90;;;;;;4592101;19;20007;-73
2023/09/25 00:56:20;;;;;;;10.60;6.97;;;20.20;99.90;;;;;;4593059;19;20378;-73
2023/09/25 00:57:55;;;;;;;8.75;6.38;;;20.20;99.90;;;;;;4594340;19;20002;-73
2023/09/25 00:59:30;;;;;;;8.57;6.18;;;20.20;99.90;;;;;;4594347;19;20007;-73
2023/09/25 01:01:04;;;;;;;10.65;6.43;;;20.20;99.90;;;;;;4594339;19;19994;-73
2023/09/25 01:02:40;;;;;;;8.80;6.35;;;20.20;99.90;;;;;;4592665;19;20016;-73
2023/09/25 01:04:16;;;;;;;8.52;6.45;;;20.20;99.90;;;;;;4593770;19;20026;-73
2023/09/25 01:05:50;;;;;;;7.97;6.28;;;20.20;99.90;;;;;;4592564;19;20003;-73
2023/09/25 01:07:24;;;;;;;9.02;6.45;;;20.20;99.90;;;;;;4593989;19;19999;-73
2023/09/25 01:08:59;;;;;;;7.90;5.60;;;20.20;99.90;;;;;;4592814;19;20010;-73
2023/09/25 01:10:34;;;;;;;8.50;6.00;;;20.20;99.90;;;;;;4593718;19;20002;-73
2023/09/25 01:12:08;;;;;;;7.60;5.85;;;20.20;99.90;;;;;;4594006;19;20073;-73
2023/09/25 01:13:44;;;;;;;8.90;5.72;;;20.20;99.90;;;;;;4594252;19;20006;-73
2023/09/25 01:15:19;;;;;;;7.70;5.72;;;20.20;99.90;;;;;;4592429;19;20019;-73
2023/09/25 01:16:54;;;;;;;7.30;5.50;;;20.20;99.90;;;;;;4592940;19;20480;-73
2023/09/25 01:18:29;;;;;;;7.15;5.80;;;20.20;99.90;;;;;;4592453;19;20025;-73
2023/09/25 01:20:25;;;;;;;8.88;5.95;;;20.20;99.90;;;;;;4593469;19;20014;-73
2023/09/25 01:21:58;;;;;;;6.28;4.72;;;20.20;99.90;;;;;;4592522;19;20006;-73
2023/09/25 01:23:35;;;;;;;7.15;5.10;;;20.20;99.90;;;;;;4593842;19;20006;-73
2023/09/25 01:25:12;;;;;;;7.50;5.10;;;20.20;99.90;;;;;;4592855;19;20010;-73
2023/09/25 01:26:45;;;;;;;7.60;5.07;;;20.10;99.90;;;;;;4591340;19;20007;-73
2023/09/25 01:28:21;;;;;;;6.88;5.03;;;20.10;99.90;;;;;;4593305;19;20015;-73
2023/09/25 01:29:54;;;;;;;7.38;5.28;;;20.20;99.90;;;;;;4593868;19;20085;-73
2023/09/25 01:31:28;;;;;;;8.25;6.45;;;20.20;99.90;;;;;;4593641;19;20086;-73
2023/09/25 01:33:04;;;;;;;8.23;6.82;;;20.10;99.90;;;;;;4593388;19;20006;-73
2023/09/25 01:34:38;;;;;;;10.07;7.47;;;20.10;99.90;;;;;;4592951;19;20022;-73
2023/09/25 01:36:14;;;;;;;10.65;7.13;;;20.10;99.90;;;;;;4591493;19;20075;-73
2023/09/25 01:37:49;;;;;;;8.63;6.38;;;20.10;99.90;;;;;;4593067;19;20014;-73
2023/09/25 01:39:23;;;;;;;9.50;6.22;;;20.20;99.90;;;;;;4593240;19;20026;-73
2023/09/25 01:40:57;;;;;;;9.52;6.82;;;20.10;99.90;;;;;;4593451;19;20003;-73
2023/09/25 01:42:32;;;;;;;8.20;6.35;;;20.10;99.90;;;;;;4593500;19;20428;-73
2023/09/25 01:44:06;;;;;;;10.82;7.70;;;20.10;99.90;;;;;;4593487;19;20432;-73
2023/09/25 01:45:40;;;;;;;9.50;6.78;;;20.10;99.90;;;;;;4591710;19;20045;-73
2023/09/25 01:47:17;;;;;;;13.23;7.82;;;20.10;99.90;;;;;;4593120;19;19998;-74
2023/09/25 01:48:50;;;;;;;10.02;7.18;;;20.10;99.90;;;;;;4593041;19;20006;-73
2023/09/25 01:50:27;;;;;;;12.98;8.43;;;20.10;99.90;;;;;;4593090;19;20005;-74
2023/09/25 01:52:07;;;;;;;9.80;7.47;;;20.10;99.90;;;;;;4591948;19;20030;-73
2023/09/25 01:53:45;;;;;;;10.55;7.70;;;20.10;99.90;;;;;;4591737;19;20057;-74
2023/09/25 01:55:19;;;;;;;10.63;7.03;;;20.10;99.90;;;;;;4591751;19;20010;-74
2023/09/25 01:56:54;;;;;;;11.50;6.97;;;20.10;99.90;;;;;;4592122;19;19998;-73
2023/09/25 01:58:28;;;;;;;8.52;6.25;;;20.10;99.90;;;;;;4591543;19;20317;-74
2023/09/25 02:00:07;;;;;;;9.73;6.55;;;20.10;99.90;;;;;;4592732;19;20319;-73
2023/09/25 02:01:42;;;;;;;8.48;6.22;;;20.10;99.90;;;;;;4593106;19;20010;-73
2023/09/25 02:03:16;;;;;;;9.68;6.97;;;20.10;99.90;;;;;;4592728;19;20062;-73
2023/09/25 02:04:53;;;;;;;9.13;6.18;;;20.10;99.90;;;;;;4592198;19;20019;-73
2023/09/25 02:06:28;;;;;;;9.25;6.50;;;20.10;99.90;;;;;;4592812;19;20003;-74
2023/09/25 02:08:02;;;;;;;7.80;5.53;;;20.10;99.90;;;;;;4592740;19;20013;-74
2023/09/25 02:09:36;;;;;;;9.63;6.43;;;20.10;99.90;;;;;;4592668;19;20002;-74
2023/09/25 02:11:12;;;;;;;8.95;6.03;;;20.10;99.90;;;;;;4591339;19;20002;-74
2023/09/25 02:12:45;;;;;;;9.77;6.28;;;20.10;99.90;;;;;;4592209;19;20002;-74
2023/09/25 02:14:20;;;;;;;8.00;6.43;;;20.10;99.90;;;;;;4592041;19;19998;-74
2023/09/25 02:15:56;;;;;;;11.48;6.82;;;20.10;99.90;;;;;;4592584;19;20011;-74
2023/09/25 02:17:30;;;;;;;10.20;7.65;;;20.10;99.90;;;;;;4592517;19;20002;-74
2023/09/25 02:19:04;;;;;;;12.13;7.05;;;20.10;99.90;;;;;;4592436;19;20441;-74
2023/09/25 02:20:40;;;;;;;8.60;6.25;;;20.10;99.90;;;;;;4592494;19;20473;-74
2023/09/25 02:22:14;;;;;;;7.47;6.25;;;20.10;99.90;;;;;;4592575;19;20004;-74
2023/09/25 02:23:48;;;;;;;7.80;7.00;;;20.10;99.90;;;;;;4592584;19;20267;-74
2023/09/25 02:25:23;;;;;;;8.70;6.35;;;20.10;99.90;;;;;;4591561;19;20012;-74
2023/09/25 02:26:58;;;;;;;7.85;6.28;;;20.10;99.90;;;;;;4592501;19;20031;-74
2023/09/25 02:28:31;;;;;;;7.40;5.63;;;20.10;99.90;;;;;;4592174;19;20007;-74
2023/09/25 02:30:10;;;;;;;9.02;6.18;;;20.10;99.90;;;;;;4592440;19;20031;-74
2023/09/25 02:31:44;;;;;;;8.50;6.07;;;20.10;99.90;;;;;;4592406;19;20066;-73
2023/09/25 02:33:18;;;;;;;10.13;6.80;;;20.10;99.90;;;;;;4592445;19;19999;-74
2023/09/25 02:34:53;;;;;;;9.52;6.88;;;20.10;99.90;;;;;;4591538;19;20011;-74
2023/09/25 02:36:27;;;;;;;9.75;7.05;;;20.10;99.90;;;;;;4591501;19;19999;-74
2023/09/25 02:38:01;;;;;;;9.48;7.05;;;20.10;99.90;;;;;;4591094;19;20002;-74
2023/09/25 02:39:36;;;;;;;8.52;6.65;;;20.10;99.90;;;;;;4592061;19;20028;-74
2023/09/25 02:41:10;;;;;;;7.88;6.53;;;20.10;99.90;;;;;;4592230;19;20009;-74
2023/09/25 02:42:47;;;;;;;8.70;7.05;;;20.10;99.90;;;;;;4591884;19;20010;-74
2023/09/25 02:44:22;;;;;;;9.77;6.78;;;20.10;99.90;;;;;;4591663;19;20006;-74
2023/09/25 02:45:57;;;;;;;9.30;7.13;;;20.10;99.90;;;;;;4592115;19;20002;-74
2023/09/25 02:47:31;;;;;;;11.07;6.75;;;20.10;99.90;;;;;;4590805;19;19998;-74
2023/09/25 02:49:06;;;;;;;7.85;6.45;;;20.10;99.90;;;;;;4591768;19;20006;-74
2023/09/25 02:50:41;;;;;;;10.25;6.57;;;20.10;99.90;;;;;;4590358;19;20006;-74
2023/09/25 02:52:15;;;;;;;7.82;5.80;;;20.10;99.90;;;;;;4591399;19;19999;-74
2023/09/25 02:53:55;;;;;;;11.70;7.47;;;20.10;99.90;;;;;;4592224;19;20006;-74
2023/09/25 02:55:29;;;;;;;8.32;6.25;;;20.10;99.90;;;;;;4590726;19;20417;-74
2023/09/25 02:57:04;;;;;;;7.80;6.28;;;20.10;99.90;;;;;;4591296;19;20313;-74
2023/09/25 02:58:40;;;;;;;9.57;6.45;;;20.10;99.90;;;;;;4591787;19;20006;-74
2023/09/25 03:00:14;;;;;;;10.15;6.57;;;20.00;99.90;;;;;;4591942;19;20009;-74
2023/09/25 03:01:49;;;;;;;9.52;6.55;;;20.10;99.90;;;;;;4590353;19;20008;-74
2023/09/25 03:03:25;;;;;;;7.72;5.93;;;20.10;99.90;;;;;;4591619;19;20070;-74
2023/09/25 03:04:59;;;;;;;7.68;6.43;;;20.00;99.90;;;;;;4590929;19;19999;-74
2023/09/25 03:06:33;;;;;;;8.82;6.13;;;20.10;99.90;;;;;;4591566;19;20065;-74
2023/09/25 03:08:09;;;;;;;9.40;6.53;;;20.10;99.90;;;;;;4591931;19;20097;-74
2023/09/25 03:09:42;;;;;;;7.88;5.70;;;20.10;99.90;;;;;;4591524;19;20009;-74
2023/09/25 03:11:16;;;;;;;8.60;5.95;;;20.10;99.90;;;;;;4591492;19;20017;-74
2023/09/25 03:12:51;;;;;;;7.97;6.38;;;20.00;99.90;;;;;;4591480;19;20002;-74
2023/09/25 03:14:26;;;;;;;9.88;5.80;;;20.00;99.90;;;;;;4590753;19;20007;-74
2023/09/25 03:16:00;;;;;;;7.97;5.93;;;20.10;99.90;;;;;;4591512;19;20002;-74
2023/09/25 03:17:38;;;;;;;7.25;5.70;;;20.00;99.90;;;;;;4591684;19;20006;-74
2023/09/25 03:19:13;;;;;;;6.47;4.95;;;20.00;99.90;;;;;;4591619;19;20007;-74
2023/09/25 03:20:47;;;;;;;7.78;6.25;;;20.00;99.90;;;;;;4591511;19;20009;-74
2023/09/25 03:22:22;;;;;;;6.55;5.20;;;20.10;99.90;;;;;;4591372;19;20039;-74
2023/09/25 03:23:57;;;;;;;6.57;5.22;;;20.00;99.90;;;;;;4591749;19;20409;-74
2023/09/25 03:25:37;;;;;;;6.70;5.13;;;20.00;99.90;;;;;;4590104;19;20086;-74
2023/09/25 03:27:13;;;;;;;6.72;5.60;;;20.00;99.90;;;;;;4591289;19;20029;-74
2023/09/25 03:28:47;;;;;;;6.18;4.88;;;20.00;99.90;;;;;;4591452;19;20001;-74
2023/09/25 03:30:22;;;;;;;8.00;5.50;;;20.00;99.90;;;;;;4590076;19;19999;-74
2023/09/25 03:31:58;;;;;;;6.93;4.80;;;20.00;99.90;;;;;;4591004;19;20007;-74
2023/09/25 03:33:32;;;;;;;6.20;5.03;;;20.00;99.90;;;;;;4591102;19;20008;-74
2023/09/25 03:35:06;;;;;;;6.25;4.60;;;20.00;99.90;;;;;;4590417;19;20006;-74
2023/09/25 03:36:42;;;;;;;6.28;4.88;;;20.00;99.90;;;;;;4590776;19;20410;-74
2023/09/25 03:38:15;;;;;;;5.75;4.45;;;20.00;99.90;;;;;;4590983;19;20385;-74
2023/09/25 03:39:49;;;;;;;7.35;4.78;;;20.00;99.90;;;;;;4590940;19;20315;-74
2023/09/25 03:41:24;;;;;;;5.43;4.22;;;20.00;99.90;;;;;;4590869;19;20014;-74
2023/09/25 03:42:59;;;;;;;4.97;4.03;;;20.00;99.90;;;;;;4591181;19;20405;-73
2023/09/25 03:44:35;;;;;;;7.38;4.63;;;20.10;99.90;;;;;;4590778;19;20421;-73
2023/09/25 03:46:10;;;;;;;5.28;4.13;;;20.10;99.90;;;;;;4590974;19;20313;-73
2023/09/25 03:47:44;;;;;;;6.57;5.10;;;20.10;99.90;;;;;;4591098;19;20003;-73
2023/09/25 03:49:18;;;;;;;6.95;4.82;;;20.20;99.90;;;;;;4591093;19;20006;-73
2023/09/25 03:50:53;;;;;;;5.70;4.97;;;20.20;99.90;;;;;;4594757;19;20003;-73
2023/09/25 03:52:27;;;;;;;6.03;5.07;;;20.30;99.90;;;;;;4594506;19;20003;-73
2023/09/25 03:54:01;;;;;;;8.00;5.13;;;20.40;99.90;;;;;;4595509;19;20429;-73
2023/09/25 03:55:37;;;;;;;11.15;5.85;;;20.50;99.90;;;;;;4594665;19;20010;-73
2023/09/25 03:57:12;;;;;;;6.65;5.35;;;20.60;99.90;;;;;;4594722;19;20078;-73
2023/09/25 03:58:46;;;;;;;6.47;5.15;;;20.70;99.90;;;;;;4596147;19;20005;-73
2023/09/25 04:00:21;;;;;;;6.43;4.90;;;20.80;99.90;;;;;;4596496;19;20007;-73
2023/09/25 04:01:55;;;;;;;7.35;5.40;;;20.80;99.90;;;;;;4596331;19;20309;-73
2023/09/25 04:03:29;;;;;;;5.82;4.82;;;20.90;99.90;;;;;;4596058;19;20443;-73
2023/09/25 04:05:04;;;;;;;6.28;4.97;;;20.90;99.90;;;;;;4594896;19;20036;-73
2023/09/25 04:06:38;;;;;;;5.78;4.43;;;21.00;99.90;;;;;;4595957;19;20043;-73
2023/09/25 04:08:12;;;;;;;5.75;4.35;;;21.00;99.90;;;;;;4596256;19;20299;-73
2023/09/25 04:09:48;;;;;;;7.40;5.07;;;21.10;99.90;;;;;;4595996;19;20024;-73
2023/09/25 04:11:23;;;;;;;10.20;5.35;;;21.10;99.90;;;;;;4595925;19;20019;-73
2023/09/25 04:12:57;;;;;;;10.02;6.07;;;21.10;99.90;;;;;;4595844;19;19999;-73
2023/09/25 04:14:35;;;;;;;7.55;5.78;;;21.10;99.90;;;;;;4595222;19;20419;-74
2023/09/25 04:16:12;;;;;;;8.65;6.05;;;21.10;99.90;;;;;;4595433;19;20369;-72
2023/09/25 04:17:45;;;;;;;7.68;5.72;;;21.10;99.90;;;;;;4596121;19;20024;-72
2023/09/25 04:19:22;;;;;;;8.15;5.82;;;21.10;99.90;;;;;;4596014;19;20031;-72
2023/09/25 04:20:56;;;;;;;6.45;5.28;;;21.10;99.90;;;;;;4595955;19;20003;-73
2023/09/25 04:22:30;;;;;;;6.40;5.00;;;21.20;99.90;;;;;;4595736;19;20010;-73
2023/09/25 04:24:10;;;;;;;7.95;5.68;;;21.10;99.90;;;;;;4596010;19;20536;-73
2023/09/25 04:25:51;;;;;;;5.85;4.60;;;21.10;99.90;;;;;;4595680;19;20439;-73
2023/09/25 04:27:25;;;;;;;6.32;5.72;;;21.10;99.90;;;;;;4595641;19;20014;-73
2023/09/25 04:29:00;;;;;;;7.05;5.70;;;21.00;99.90;;;;;;4595876;19;20014;-73
2023/09/25 04:30:33;;;;;;;7.85;5.70;;;21.00;99.90;;;;;;4595489;19;19995;-73
2023/09/25 04:32:07;;;;;;;8.18;6.05;;;21.00;99.90;;;;;;4595491;19;20014;-73
2023/09/25 04:33:43;;;;;;;8.13;5.55;;;21.00;99.90;;;;;;4594454;19;20006;-73
2023/09/25 04:35:18;;;;;;;8.32;6.05;;;21.00;99.90;;;;;;4593997;19;20003;-73
2023/09/25 04:36:52;;;;;;;7.30;5.10;;;21.00;99.90;;;;;;4594262;19;20002;-73
2023/09/25 04:38:28;;;;;;;7.32;5.90;;;21.00;99.90;;;;;;4595427;19;20014;-73
2023/09/25 04:40:07;;;;;;;8.10;6.43;;;21.00;99.90;;;;;;4595356;19;19999;-73
2023/09/25 04:41:42;;;;;;;7.57;5.50;;;21.00;99.90;;;;;;4595348;19;20063;-73
2023/09/25 04:43:17;;;;;;;6.78;5.10;;;21.00;99.90;;;;;;4595601;19;20010;-73
2023/09/25 04:44:51;;;;;;;6.97;5.80;;;21.00;99.90;;;;;;4594440;19;20007;-73
2023/09/25 04:46:25;;;;;;;8.07;5.43;;;21.00;99.90;;;;;;4595448;19;20421;-73
2023/09/25 04:48:00;;;;;;;7.32;5.15;;;21.00;99.90;;;;;;4595168;19;19998;-73
2023/09/25 04:49:34;;;;;;;8.85;5.43;;;21.00;99.90;;;;;;4595329;19;20350;-73
2023/09/25 04:51:09;;;;;;;8.70;6.43;;;21.00;99.90;;;;;;4595027;19;20002;-73
2023/09/25 04:52:48;;;;;;;9.13;6.07;;;20.90;99.90;;;;;;4595356;19;20304;-73
2023/09/25 04:54:22;;;;;;;9.32;5.80;;;20.90;99.90;;;;;;4594741;19;20039;-73
2023/09/25 04:55:56;;;;;;;10.88;6.85;;;20.90;99.90;;;;;;4594429;19;20006;-73
2023/09/25 04:57:32;;;;;;;7.95;5.90;;;20.90;99.90;;;;;;4593609;19;20493;-73
2023/09/25 04:59:06;;;;;;;8.10;5.82;;;20.90;99.90;;;;;;4594149;19;20006;-73
2023/09/25 05:00:44;;;;;;;8.32;5.80;;;20.90;99.90;;;;;;4594948;19;20070;-73
2023/09/25 05:02:19;;;;;;;8.20;5.47;;;20.80;99.90;;;;;;4593222;19;20013;-73
2023/09/25 05:03:53;;;;;;;9.05;5.78;;;20.80;99.90;;;;;;4594378;19;20027;-73
2023/09/25 05:05:27;;;;;;;8.40;5.20;;;20.80;99.90;;;;;;4593691;19;20007;-72
2023/09/25 05:07:02;;;;;;;8.27;5.97;;;20.80;99.90;;;;;;4594645;19;20003;-72
2023/09/25 05:08:36;;;;;;;7.55;5.05;;;20.80;99.90;;;;;;4594633;19;19998;-73
2023/09/25 05:10:14;;;;;;;7.65;4.78;;;20.70;99.90;;;;;;4594856;19;20458;-72
2023/09/25 05:11:49;;;;;;;6.65;4.72;;;20.70;99.90;;;;;;4593275;19;20006;-73
2023/09/25 05:13:23;;;;;;;8.60;5.53;;;20.70;99.90;;;;;;4594427;19;20002;-73
2023/09/25 05:14:57;;;;;;;5.35;4.55;;;20.70;99.90;;;;;;4593203;19;20322;-73
2023/09/25 05:16:32;;;;;;;7.43;5.15;;;20.70;99.90;;;;;;4593978;19;20003;-73
2023/09/25 05:18:06;;;;;;;7.20;5.30;;;20.70;99.90;;;;;;4594528;19;20031;-73
2023/09/25 05:19:40;;;;;;;9.55;6.13;;;20.70;99.90;;;;;;4594463;19;20002;-72
2023/09/25 05:21:15;;;;;;;6.75;5.22;;;20.70;99.90;;;;;;4594714;19;20066;-73
2023/09/25 05:22:51;;;;;;;7.35;6.00;;;20.60;99.90;;;;;;4594390;19;20062;-73
2023/09/25 05:24:26;;;;;;;7.28;5.80;;;20.60;99.90;;;;;;4592751;19;20058;-73
2023/09/25 05:26:01;;;;;;;7.60;6.03;;;20.60;99.90;;;;;;4593970;19;20069;-73
2023/09/25 05:27:38;;;;;;;7.95;5.80;;;20.60;99.90;;;;;;4594367;19;20459;-73
2023/09/25 05:29:12;;;;;;;9.32;5.78;;;20.60;99.90;;;;;;4593288;19;20355;-73
2023/09/25 05:30:48;;;;;;;10.23;6.10;;;20.60;99.90;;;;;;4594032;19;19998;-73
2023/09/25 05:32:23;;;;;;;6.68;5.53;;;20.60;99.90;;;;;;4594510;19;20424;-73
2023/09/25 05:33:56;;;;;;;7.00;5.72;;;20.60;99.90;;;;;;4594423;19;20009;-73
2023/09/25 05:35:32;;;;;;;7.43;6.30;;;20.60;99.90;;;;;;4591604;19;20010;-73
2023/09/25 05:37:06;;;;;;;7.13;5.55;;;20.60;99.90;;;;;;4592647;19;20066;-73
2023/09/25 05:38:41;;;;;;;10.40;5.93;;;20.60;99.90;;;;;;4594359;19;19998;-72
2023/09/25 05:40:16;;;;;;;8.30;5.85;;;20.60;99.90;;;;;;4594124;19;20301;-73
2023/09/25 05:41:50;;;;;;;8.80;6.07;;;20.50;99.90;;;;;;4592722;19;20015;-73
2023/09/25 05:43:25;;;;;;;7.45;5.55;;;20.60;99.90;;;;;;4593572;19;20017;-73
2023/09/25 05:45:00;;;;;;;7.13;5.80;;;20.50;99.90;;;;;;4593183;19;20006;-72
2023/09/25 05:46:34;;;;;;;9.13;6.28;;;20.50;99.90;;;;;;4592798;19;20369;-72
2023/09/25 05:48:09;;;;;;;7.57;6.20;;;20.50;99.90;;;;;;4593386;19;20316;-72
2023/09/25 05:49:44;;;;;;;7.70;5.50;;;20.50;99.90;;;;;;4592833;19;20036;-72
2023/09/25 05:51:20;;;;;;;8.73;5.93;;;20.60;99.90;;;;;;4593781;19;20069;-72
2023/09/25 05:52:54;;;;;;;7.85;5.72;;;20.60;99.90;;;;;;4593773;19;20010;-72
2023/09/25 05:54:32;;;;;;;7.70;6.40;;;20.70;99.90;;;;;;4593444;19;20017;-72
2023/09/25 05:56:06;;;;;;;7.63;5.65;;;20.70;99.90;;;;;;4592487;19;20002;-72
2023/09/25 05:57:41;;;;;;;8.18;6.05;;;20.80;99.90;;;;;;4593289;19;19999;-72
2023/09/25 05:59:17;;;;;;;8.77;6.72;;;20.90;99.90;;;;;;4592375;19;20066;-72
2023/09/25 06:00:52;;;;;;;9.95;6.63;;;20.90;99.90;;;;;;4593530;19;20002;-72
2023/09/25 06:02:33;;;;;;;9.48;7.57;;;21.00;99.90;;;;;;4593576;19;19998;-74
2023/09/25 06:04:08;;;;;;;9.30;6.78;;;18.70;99.90;;;;;;4593613;19;20074;-74
2023/09/25 06:05:42;;;;;;;9.27;7.88;;;17.20;99.90;;;;;;4593730;19;20015;-74
2023/09/25 06:07:16;;;;;;;10.05;6.70;;;16.60;99.90;;;;;;4593453;19;20006;-75
2023/09/25 06:08:51;;;;;;;8.73;6.45;;;17.20;99.90;;;;;;4593551;19;20358;-75
2023/09/25 06:10:26;;;;;;;8.20;6.85;;;18.00;99.90;;;;;;4592117;19;20065;-75
2023/09/25 06:12:02;;;;;;;8.05;6.00;;;18.70;99.90;;;;;;4592970;19;20021;-75
2023/09/25 06:13:38;;;;;;;11.32;6.50;;;19.20;99.90;;;;;;4591826;19;20003;-74
2023/09/25 06:15:12;;;;;;;9.80;5.85;;;19.60;99.90;;;;;;4592427;19;20015;-75
2023/09/25 06:16:47;;;;;;;12.02;5.78;;;19.80;99.90;;;;;;4592907;19;20016;-75
2023/09/25 06:18:22;;;;;;;6.72;4.68;;;20.00;99.90;;;;;;4593365;19;20062;-75
2023/09/25 06:19:58;;;;;;;8.75;4.90;;;20.20;99.90;;;;;;4593271;19;20397;-75
2023/09/25 06:21:32;;;;;;;6.00;4.47;;;20.30;99.90;;;;;;4593415;19;20006;-75
2023/09/25 06:23:08;;;;;;;5.07;3.45;;;20.50;99.90;;;;;;4593164;19;20322;-75
2023/09/25 06:24:42;;;;;;;6.32;3.00;;;20.50;99.90;;;;;;4592639;19;20003;-75
2023/09/25 06:26:16;;;;;;;7.85;3.75;;;20.60;99.90;;;;;;4593140;19;20031;-75
2023/09/25 06:27:51;;;;;;;5.28;3.22;;;20.70;99.90;;;;;;4593115;19;20007;-75
2023/09/25 06:29:25;;;;;;;5.18;3.42;;;20.70;99.90;;;;;;4593067;19;20021;-75
2023/09/25 06:30:59;;;;;;;6.13;3.30;;;20.80;99.90;;;;;;4593046;19;20065;-75
2023/09/25 06:32:35;;;;;;;4.30;2.63;;;20.80;99.90;;;;;;4591987;19;20047;-76
2023/09/25 06:34:10;;;;;;;3.92;2.60;;;20.80;99.90;;;;;;4592806;19;20006;-75
2023/09/25 06:35:45;;;;;;;4.30;2.58;;;20.80;99.90;;;;;;4591549;19;20073;-75
2023/09/25 06:37:21;;;;;;;5.60;2.88;;;20.80;99.90;;;;;;4591828;19;20014;-76
2023/09/25 06:38:54;;;;;;;4.05;2.50;;;20.90;99.90;;;;;;4593121;19;20007;-76
2023/09/25 06:40:29;;;;;;;4.43;2.95;;;20.90;99.90;;;;;;4592869;19;20079;-76
2023/09/25 06:42:04;;;;;;;6.43;2.63;;;20.90;99.90;;;;;;4593172;19;20006;-75
2023/09/25 06:43:38;;;;;;;3.92;2.33;;;20.90;99.90;;;;;;4592779;19;20007;-75
2023/09/25 06:45:12;;;;;;;4.10;2.42;;;20.90;99.90;;;;;;4592235;19;20483;-75
2023/09/25 06:46:47;;;;;;;3.25;1.85;;;20.90;99.90;;;;;;4592946;19;20029;-75
2023/09/25 06:48:21;;;;;;;4.78;2.17;;;21.00;99.90;;;;;;4592976;19;20002;-76
2023/09/25 06:49:56;;;;;;;5.18;1.92;;;21.00;99.90;;;;;;4592901;19;19999;-76
2023/09/25 06:51:31;;;;;;;3.30;1.75;;;21.00;99.90;;;;;;4593385;19;20010;-75
2023/09/25 06:53:07;;;;;;;4.25;1.80;;;21.10;99.90;;;;;;4592538;19;20007;-76
2023/09/25 06:54:41;;;;;;;3.50;1.80;;;21.10;99.90;;;;;;4592090;19;20006;-76
2023/09/25 06:56:16;;;;;;;6.15;2.78;;;21.20;99.90;;;;;;4591184;19;20028;-76
2023/09/25 06:57:50;;;;;;;2.53;1.48;;;21.20;99.90;;;;;;4592024;19;20002;-76
2023/09/25 06:59:26;;;;;;;4.20;2.03;;;21.20;99.90;;;;;;4592443;19;20012;-76
2023/09/25 07:01:02;;;;;;;4.03;1.83;;;21.30;99.90;;;;;;4592460;19;20336;-73
2023/09/25 07:02:36;;;;;;;4.40;1.75;;;21.40;99.90;;;;;;4592315;19;20014;-73
2023/09/25 07:04:12;;;;;;;3.75;2.17;;;21.40;99.90;;;;;;4592605;19;20450;-78
2023/09/25 07:05:48;;;;;;;4.30;2.05;;;21.40;99.90;;;;;;4591337;19;19999;-48
2023/09/25 07:07:22;;;;;;;4.00;1.60;;;21.50;99.90;;;;;;4591852;19;20010;-55
2023/09/25 07:08:57;;;;;;;2.95;1.38;;;21.50;99.90;;;;;;4592169;19;20462;-73
2023/09/25 07:10:32;;;;;;;4.60;1.65;;;21.50;99.90;;;;;;4592278;19;20298;-75
2023/09/25 07:12:14;;;;;;;7.55;3.35;;;21.50;99.90;;;;;;4590987;19;20030;-74
2023/09/25 07:13:51;;;;;;;3.83;2.08;;;21.50;99.90;;;;;;4592573;19;20013;-78
2023/09/25 07:15:26;;;;;;;2.88;1.65;;;21.50;99.90;;;;;;4590282;19;20106;-79
2023/09/25 07:17:00;;;;;;;4.63;1.67;;;21.50;99.90;;;;;;4590561;19;20011;-80
2023/09/25 07:18:34;;;;;;;3.72;1.73;;;21.50;99.90;;;;;;4590919;19;20023;-79
2023/09/25 07:20:09;;;;;;;5.28;1.65;;;21.60;99.90;;;;;;4591206;19;20090;-79
2023/09/25 07:21:43;;;;;;;7.30;3.65;;;21.50;99.90;;;;;;4591627;19;20073;-79
2023/09/25 07:23:17;;;;;;;3.28;1.48;;;21.50;99.90;;;;;;4591421;19;20015;-79
2023/09/25 07:24:52;;;;;;;3.78;1.63;;;21.50;99.90;;;;;;4592923;19;20116;-78
2023/09/25 07:26:26;;;;;;;3.28;1.52;;;21.50;99.90;;;;;;4595674;19;20007;-79
2023/09/25 07:27:59;;;;;;;3.65;1.80;;;21.50;99.90;;;;;;4596645;19;20014;-79
2023/09/25 07:29:37;;;;;;;5.82;2.88;;;21.40;99.90;;;;;;4595906;19;20082;-78
2023/09/25 07:31:11;;;;;;;3.25;2.20;;;21.50;99.90;;;;;;4595629;19;20040;-79
2023/09/25 07:32:45;;;;;;;2.03;1.33;;;21.50;99.90;;;;;;4596195;19;20334;-79
2023/09/25 07:34:20;;;;;;;3.13;2.17;;;21.40;99.90;;;;;;4594846;19;20006;-79
2023/09/25 07:35:54;;;;;;;3.75;2.17;;;21.50;99.90;;;;;;4596234;19;20086;-79
2023/09/25 07:37:28;;;;;;;2.83;2.15;;;21.40;99.90;;;;;;4593240;19;20296;-79
2023/09/25 07:39:04;;;;;;;6.30;2.58;;;21.40;99.90;;;;;;4595423;19;20002;-79
2023/09/25 07:40:38;;;;;;;3.20;1.95;;;21.40;99.90;;;;;;4596129;19;20300;-79
2023/09/25 07:42:12;;;;;;;4.18;2.60;;;21.40;99.90;;;;;;4596444;19;20010;-79
2023/09/25 07:43:48;;;;;;;5.93;2.33;;;21.40;99.90;;;;;;4595586;19;20014;-78
2023/09/25 07:45:25;;;;;;;3.55;1.60;;;21.40;99.90;;;;;;4594567;19;19998;-79
2023/09/25 07:46:59;;;;;;;3.60;2.00;;;21.40;99.90;;;;;;4595343;19;20027;-79
2023/09/25 07:48:40;;;;;;;2.85;1.48;;;21.40;99.90;;;;;;4595158;19;20006;-79
2023/09/25 07:50:14;;;;;;;2.83;1.20;;;21.40;99.90;;;;;;4595437;19;20095;-79
2023/09/25 07:51:48;;;;;;;2.80;1.15;;;21.40;99.90;;;;;;4595109;19;20014;-79
2023/09/25 07:53:23;;;;;;;1.80;1.05;;;21.40;99.90;;;;;;4595214;19;19998;-79
2023/09/25 07:54:59;;;;;;;2.45;1.20;;;21.30;99.90;;;;;;4594761;19;20011;-79
2023/09/25 07:56:33;;;;;;;2.67;1.10;;;21.30;99.90;;;;;;4595057;19;20018;-79
2023/09/25 07:58:11;;;;;;;4.57;1.40;;;21.30;99.90;;;;;;4595711;19;20009;-79
2023/09/25 07:59:47;;;;;;;4.28;2.08;;;21.30;99.90;;;;;;4595821;19;20007;-78
2023/09/25 08:01:22;;;;;;;3.35;1.00;;;21.30;99.90;;;;;;4594900;19;20006;-79
2023/09/25 08:02:59;;;;;;;2.33;0.90;;;21.40;99.90;;;;;;4595111;19;20021;-79
2023/09/25 08:04:34;;;;;;;1.88;0.65;;;21.30;99.90;;;;;;4594363;19;20058;-79
2023/09/25 08:06:11;;;;;;;3.67;1.65;;;21.40;99.90;;;;;;4594179;19;20318;-79
2023/09/25 08:07:50;;;;;;;5.10;1.30;;;21.40;99.90;;;;;;4595346;19;20011;-79
2023/09/25 08:09:23;;;;;;;3.60;1.35;;;21.30;99.90;;;;;;4595516;19;19998;-79
2023/09/25 08:10:57;;;;;;;4.80;0.98;;;21.30;99.90;;;;;;4595531;19;20309;-79
2023/09/25 08:12:32;;;;;;;2.60;0.90;;;21.30;99.90;;;;;;4595427;19;20130;-79
2023/09/25 08:14:06;;;;;;;2.38;1.00;;;21.30;99.90;;;;;;4595678;19;20417;-79
2023/09/25 08:15:40;;;;;;;3.28;1.13;;;21.30;99.90;;;;;;4593898;19;20011;-79
2023/09/25 08:17:15;;;;;;;4.15;1.05;;;21.30;99.90;;;;;;4594730;19;20003;-79
2023/09/25 08:18:49;;;;;;;2.38;1.02;;;21.20;99.90;;;;;;4595716;19;20364;-79
2023/09/25 08:20:26;;;;;;;2.90;1.10;;;21.30;99.90;;;;;;4593977;19;19995;-79
2023/09/25 08:22:01;;;;;;;4.38;1.63;;;21.30;99.90;;;;;;4595313;19;20029;-78
2023/09/25 08:23:35;;;;;;;2.45;1.50;;;21.30;99.90;;;;;;4595531;19;20474;-79
2023/09/25 08:25:10;;;;;;;2.90;1.17;;;21.30;99.90;;;;;;4594219;19;20025;-78
2023/09/25 08:26:48;;;;;;;2.83;1.25;;;21.30;99.90;;;;;;4595516;19;20067;-78
2023/09/25 08:28:24;;;;;;;3.05;1.70;;;21.40;99.90;;;;;;4595535;19;20040;-79